createdAt,value
2024-05-09T00:00:40.035Z,58.97
2024-05-09T00:03:09.874Z,59.08
2024-05-09T00:05:38.416Z,59.12
2024-05-09T00:08:05.941Z,59.30
2024-05-09T00:10:37.203Z,59.16
2024-05-09T00:13:10.437Z,59.26
2024-05-09T00:15:38.262Z,59.23
2024-05-09T00:18:07.697Z,59.11
2024-05-09T00:20:39.195Z,59.54
2024-05-09T00:23:12.558Z,59.46
2024-05-09T00:25:44.378Z,59.20
2024-05-09T00:28:12.377Z,59.48
2024-05-09T00:30:39.757Z,59.29
2024-05-09T00:33:08.375Z,58.99
2024-05-09T00:35:36.823Z,58.71
2024-05-09T00:38:04.506Z,59.17
2024-05-09T00:40:40.484Z,58.82
2024-05-09T00:43:10.683Z,59.26
2024-05-09T00:45:37.921Z,59.06
2024-05-09T00:48:07.803Z,58.92
2024-05-09T00:50:38.836Z,59.05
2024-05-09T00:53:11.855Z,58.51
2024-05-09T00:55:40.231Z,58.49
2024-05-09T00:58:09.663Z,58.14
2024-05-09T01:00:39.987Z,58.54
2024-05-09T01:03:10.802Z,58.85
2024-05-09T01:05:40.192Z,58.69
2024-05-09T01:08:08.728Z,58.78
2024-05-09T01:10:37.014Z,58.77
2024-05-09T01:13:07.647Z,59.01
2024-05-09T01:15:35.874Z,58.45
2024-05-09T01:18:09.823Z,58.88
2024-05-09T01:20:42.203Z,58.53
2024-05-09T01:23:12.562Z,58.67
2024-05-09T01:25:40.825Z,58.30
2024-05-09T01:28:07.767Z,58.47
2024-05-09T01:30:37.072Z,58.78
2024-05-09T01:33:07.349Z,58.33
2024-05-09T01:35:36.372Z,58.07
2024-05-09T01:38:03.429Z,58.23
2024-05-09T01:40:37.236Z,58.55
2024-05-09T01:43:10.855Z,58.96
2024-05-09T01:45:41.942Z,58.85
2024-05-09T01:48:10.461Z,58.84
2024-05-09T01:50:41.515Z,59.55
2024-05-09T01:53:14.504Z,59.46
2024-05-09T01:55:42.578Z,59.17
2024-05-09T01:58:10.049Z,59.20
2024-05-09T02:00:57.194Z,59.25
2024-05-09T02:03:47.821Z,59.36
2024-05-09T02:06:15.032Z,58.98
2024-05-09T02:08:42.287Z,59.06
2024-05-09T02:11:10.749Z,58.81
2024-05-09T02:13:37.586Z,58.77
2024-05-09T02:16:04.720Z,58.80
2024-05-09T02:18:31.806Z,59.06
2024-05-09T02:20:58.696Z,58.30
2024-05-09T02:23:25.809Z,58.58
2024-05-09T02:25:52.758Z,58.46
2024-05-09T02:28:21.424Z,58.97
2024-05-09T02:30:48.203Z,58.65
2024-05-09T02:33:15.259Z,58.30
2024-05-09T02:35:43.624Z,58.81
2024-05-09T02:38:11.724Z,58.77
2024-05-09T02:40:39.988Z,58.56
2024-05-09T02:43:10.353Z,58.21
2024-05-09T02:45:40.759Z,57.99
2024-05-09T02:48:10.967Z,58.29
2024-05-09T02:50:40.824Z,58.16
2024-05-09T02:53:09.235Z,57.77
2024-05-09T02:55:40.439Z,57.96
2024-05-09T02:58:07.739Z,57.35
2024-05-09T03:00:39.379Z,57.45
2024-05-09T03:03:10.972Z,57.61
2024-05-09T03:05:40.815Z,57.41
2024-05-09T03:08:08.243Z,57.29
2024-05-09T03:10:37.548Z,57.27
2024-05-09T03:13:15.094Z,57.56
2024-05-09T03:15:43.694Z,57.62
2024-05-09T03:18:11.427Z,57.42
2024-05-09T03:20:39.233Z,57.60
2024-05-09T03:23:09.152Z,57.45
2024-05-09T03:25:36.968Z,57.93
2024-05-09T03:28:04.117Z,57.37
2024-05-09T03:30:39.642Z,58.08
2024-05-09T03:33:15.443Z,57.94
2024-05-09T03:35:44.046Z,57.52
2024-05-09T03:38:11.029Z,57.79
2024-05-09T03:40:46.682Z,57.84
2024-05-09T03:43:14.299Z,57.44
2024-05-09T03:45:42.836Z,57.79
2024-05-09T03:48:10.229Z,57.67
2024-05-09T03:50:37.877Z,57.49
2024-05-09T03:53:05.500Z,57.36
2024-05-09T03:55:32.575Z,57.38
2024-05-09T03:57:59.563Z,57.14
2024-05-09T04:00:35.139Z,57.67
2024-05-09T04:03:08.747Z,57.87
2024-05-09T04:05:39.801Z,57.71
2024-05-09T04:08:07.577Z,57.48
2024-05-09T04:10:35.318Z,57.55
2024-05-09T04:13:03.497Z,57.56
2024-05-09T04:15:30.952Z,57.56
2024-05-09T04:17:58.403Z,57.56
2024-05-09T04:20:35.891Z,57.54
2024-05-09T04:23:07.887Z,57.64
2024-05-09T04:25:35.632Z,57.85
2024-05-09T04:28:02.647Z,57.73
2024-05-09T04:30:37.150Z,57.67
2024-05-09T04:33:08.848Z,57.87
2024-05-09T04:35:38.020Z,57.39
2024-05-09T04:38:05.886Z,57.94
2024-05-09T04:40:36.000Z,57.66
2024-05-09T04:43:05.308Z,57.61
2024-05-09T04:45:32.521Z,57.21
2024-05-09T04:47:59.766Z,57.30
2024-05-09T04:50:35.528Z,57.87
2024-05-09T04:53:06.345Z,58.08
2024-05-09T04:55:34.123Z,58.42
2024-05-09T04:58:01.810Z,58.92
2024-05-09T05:00:35.815Z,58.96
2024-05-09T05:03:11.037Z,59.54
2024-05-09T05:05:41.805Z,59.66
2024-05-09T05:08:13.385Z,59.67
2024-05-09T05:10:41.729Z,59.99
2024-05-09T05:13:22.690Z,60.14
2024-05-09T05:15:53.424Z,60.04
2024-05-09T05:18:21.216Z,60.39
2024-05-09T05:20:49.195Z,60.66
2024-05-09T05:23:18.811Z,61.03
2024-05-09T05:25:50.670Z,60.78
2024-05-09T05:28:18.119Z,60.76
2024-05-09T05:30:46.002Z,61.20
2024-05-09T05:33:14.510Z,61.01
2024-05-09T05:35:42.284Z,60.80
2024-05-09T05:38:10.607Z,61.21
2024-05-09T05:40:38.871Z,61.43
2024-05-09T05:43:10.888Z,61.67
2024-05-09T05:45:39.014Z,61.20
2024-05-09T05:48:07.569Z,62.02
2024-05-09T05:50:37.538Z,61.70
2024-05-09T05:53:07.951Z,61.75
2024-05-09T05:55:36.963Z,62.12
2024-05-09T05:58:04.156Z,62.12
2024-05-09T06:00:38.242Z,61.91
2024-05-09T06:03:08.191Z,62.25
2024-05-09T06:05:36.686Z,61.99
2024-05-09T06:08:04.068Z,62.29
2024-05-09T06:10:37.842Z,62.23
2024-05-09T06:13:07.419Z,62.65
2024-05-09T06:15:34.482Z,62.65
2024-05-09T06:18:01.819Z,62.26
2024-05-09T06:20:35.719Z,62.25
2024-05-09T06:23:06.231Z,61.99
2024-05-09T06:25:33.727Z,62.43
2024-05-09T06:28:01.621Z,62.49
2024-05-09T06:30:37.061Z,62.32
2024-05-09T06:33:08.845Z,62.66
2024-05-09T06:35:36.965Z,62.44
2024-05-09T06:38:04.494Z,62.19
2024-05-09T06:40:37.375Z,62.52
2024-05-09T06:43:13.493Z,62.70
2024-05-09T06:45:40.745Z,62.25
2024-05-09T06:48:09.817Z,62.67
2024-05-09T06:50:38.902Z,62.51
2024-05-09T06:53:07.901Z,62.42
2024-05-09T06:55:34.949Z,62.54
2024-05-09T06:58:01.843Z,62.13
2024-05-09T07:00:35.768Z,62.60
2024-05-09T07:03:10.346Z,62.81
2024-05-09T07:05:37.932Z,62.86
2024-05-09T07:08:06.258Z,62.63
2024-05-09T07:10:35.542Z,62.81
2024-05-09T07:13:03.247Z,62.75
2024-05-09T07:15:30.354Z,63.09
2024-05-09T07:17:57.413Z,62.83
2024-05-09T07:20:32.383Z,63.26
2024-05-09T07:23:03.262Z,62.76
2024-05-09T07:25:30.687Z,62.81
2024-05-09T07:27:57.978Z,62.89
2024-05-09T07:30:32.639Z,62.83
2024-05-09T07:33:02.301Z,63.10
2024-05-09T07:35:30.252Z,63.21
2024-05-09T07:37:57.633Z,62.94
2024-05-09T07:40:32.813Z,62.89
2024-05-09T07:43:13.372Z,63.12
2024-05-09T07:45:50.415Z,63.20
2024-05-09T07:52:38.600Z,62.90
2024-05-09T07:53:49.096Z,63.06
2024-05-09T07:56:21.733Z,63.06
2024-05-09T07:58:52.107Z,62.72
2024-05-09T08:01:20.019Z,62.81
2024-05-09T08:03:47.441Z,63.01
2024-05-09T08:06:14.683Z,63.38
2024-05-09T08:08:41.780Z,63.12
2024-05-09T08:11:08.763Z,63.34
2024-05-09T08:13:35.572Z,63.43
2024-05-09T08:16:02.461Z,62.95
2024-05-09T08:18:29.541Z,63.30
2024-05-09T08:20:56.852Z,62.77
2024-05-09T08:23:26.185Z,62.83
2024-05-09T08:25:53.176Z,63.23
2024-05-09T08:28:20.791Z,62.72
2024-05-09T08:30:48.178Z,63.02
2024-05-09T08:33:15.489Z,62.45
2024-05-09T08:35:42.598Z,62.69
2024-05-09T08:38:09.605Z,62.54
2024-05-09T08:40:37.957Z,62.35
2024-05-09T08:43:11.367Z,63.00
2024-05-09T08:45:45.364Z,62.50
2024-05-09T08:48:15.470Z,62.63
2024-05-09T08:50:44.976Z,62.90
2024-05-09T08:53:15.141Z,62.93
2024-05-09T08:55:44.022Z,62.81
2024-05-09T08:58:16.728Z,62.88
2024-05-09T09:00:45.378Z,62.46
2024-05-09T09:03:19.063Z,62.01
2024-05-09T09:05:54.332Z,61.50
2024-05-09T09:08:21.656Z,61.29
2024-05-09T09:10:49.255Z,60.89
2024-05-09T09:13:16.268Z,61.00
2024-05-09T09:15:50.561Z,60.45
2024-05-09T09:18:18.813Z,60.27
2024-05-09T09:20:46.080Z,60.51
2024-05-09T09:23:13.134Z,60.13
2024-05-09T09:25:40.938Z,60.58
2024-05-09T09:28:09.169Z,61.18
2024-05-09T09:30:43.335Z,61.45
2024-05-09T09:33:10.566Z,61.02
2024-05-09T09:35:39.766Z,61.00
2024-05-09T09:38:08.000Z,61.50
2024-05-09T09:40:40.644Z,61.27
2024-05-09T09:43:18.737Z,60.88
2024-05-09T09:45:48.959Z,61.13
2024-05-09T09:48:17.045Z,61.25
2024-05-09T09:50:45.460Z,60.97
2024-05-09T09:53:13.122Z,60.51
2024-05-09T09:55:40.452Z,60.77
2024-05-09T09:58:09.752Z,60.62
2024-05-09T10:00:39.355Z,60.76
2024-05-09T10:03:06.914Z,60.35
2024-05-09T10:05:35.245Z,60.12
2024-05-09T10:08:07.837Z,59.72
2024-05-09T10:10:35.881Z,60.08
2024-05-09T10:13:07.493Z,60.35
2024-05-09T10:15:48.368Z,60.16
2024-05-09T10:18:15.702Z,60.04
2024-05-09T10:20:46.702Z,59.13
2024-05-09T10:23:30.005Z,59.61
2024-05-09T10:26:01.807Z,58.68
2024-05-09T10:28:29.872Z,58.81
2024-05-09T10:31:11.403Z,58.99
2024-05-09T10:33:40.218Z,58.86
2024-05-09T10:36:23.247Z,58.97
2024-05-09T10:38:52.139Z,58.86
2024-05-09T10:41:20.450Z,58.23
2024-05-09T10:43:48.225Z,58.08
2024-05-09T10:46:16.514Z,58.39
2024-05-09T10:48:45.077Z,58.15
2024-05-09T10:51:13.289Z,57.56
2024-05-09T10:53:44.600Z,57.75
2024-05-09T10:56:13.411Z,57.97
2024-05-09T10:58:40.435Z,57.35
2024-05-09T11:01:08.869Z,57.34
2024-05-09T11:03:37.030Z,57.45
2024-05-09T11:06:05.463Z,57.95
2024-05-09T11:08:33.627Z,57.76
2024-05-09T11:11:03.012Z,57.22
2024-05-09T11:13:31.769Z,56.76
2024-05-09T11:16:00.138Z,56.48
2024-05-09T11:18:32.155Z,56.04
2024-05-09T11:21:02.208Z,54.81
2024-05-09T11:23:32.026Z,54.67
2024-05-09T11:25:59.257Z,54.66
2024-05-09T11:28:29.399Z,54.13
2024-05-09T11:31:10.201Z,54.63
2024-05-09T11:33:43.336Z,54.52
2024-05-09T11:36:10.691Z,54.31
2024-05-09T11:38:37.585Z,54.64
2024-05-09T11:41:05.614Z,54.27
2024-05-09T11:43:32.713Z,52.84
2024-05-09T11:46:02.828Z,52.51
2024-05-09T11:48:30.628Z,51.59
2024-05-09T11:50:57.675Z,50.96
2024-05-09T11:53:24.544Z,51.79
2024-05-09T11:55:51.380Z,51.99
2024-05-09T11:58:19.168Z,51.46
2024-05-09T12:00:46.883Z,52.06
2024-05-09T12:03:14.470Z,51.63
2024-05-09T12:05:41.783Z,51.77
2024-05-09T12:08:09.076Z,51.89
2024-05-09T12:10:36.969Z,50.57
2024-05-09T12:13:06.321Z,50.48
2024-05-09T12:15:37.150Z,50.42
2024-05-09T12:18:05.938Z,50.18
2024-05-09T12:20:37.676Z,50.45
2024-05-09T12:23:09.762Z,51.00
2024-05-09T12:25:38.682Z,50.83
2024-05-09T12:28:06.513Z,50.20
2024-05-09T12:30:38.172Z,50.12
2024-05-09T12:33:12.571Z,49.74
2024-05-09T12:35:43.360Z,48.98
2024-05-09T12:38:12.936Z,48.88
2024-05-09T12:40:39.821Z,48.22
2024-05-09T12:43:08.575Z,47.05
2024-05-09T12:45:37.214Z,46.12
2024-05-09T12:48:07.531Z,45.41
2024-05-09T12:50:35.200Z,46.62
2024-05-09T12:53:03.798Z,45.87
2024-05-09T12:55:40.390Z,46.31
2024-05-09T12:58:18.651Z,46.02
2024-05-09T13:00:46.195Z,46.70
2024-05-09T13:03:13.779Z,46.44
2024-05-09T13:05:47.030Z,46.08
2024-05-09T13:08:14.162Z,45.49
2024-05-09T13:10:41.623Z,45.91
2024-05-09T13:13:11.962Z,45.58
2024-05-09T13:15:39.293Z,45.14
2024-05-09T13:18:07.081Z,44.24
2024-05-09T13:20:36.150Z,44.49
2024-05-09T13:23:05.515Z,44.21
2024-05-09T13:25:35.118Z,44.33
2024-05-09T13:28:03.770Z,43.83
2024-05-09T13:30:39.088Z,44.30
2024-05-09T13:33:14.269Z,43.85
2024-05-09T13:35:48.784Z,43.41
2024-05-09T13:38:20.152Z,44.54
2024-05-09T13:40:47.999Z,44.11
2024-05-09T13:43:15.382Z,43.65
2024-05-09T13:45:42.799Z,44.00
2024-05-09T13:48:10.442Z,43.77
2024-05-09T13:50:37.652Z,44.60
2024-05-09T13:53:06.718Z,44.65
2024-05-09T13:55:35.538Z,44.23
2024-05-09T13:58:03.103Z,43.59
2024-05-09T14:00:42.394Z,44.13
2024-05-09T14:03:15.713Z,44.29
2024-05-09T14:05:43.509Z,43.74
2024-05-09T14:08:11.297Z,44.06
2024-05-09T14:10:44.494Z,44.47
2024-05-09T14:13:12.348Z,44.34
2024-05-09T14:15:39.592Z,44.34
2024-05-09T14:18:10.357Z,44.09
2024-05-09T14:20:39.675Z,44.18
2024-05-09T14:23:06.601Z,44.13
2024-05-09T14:25:37.668Z,43.21
2024-05-09T14:28:07.503Z,44.42
2024-05-09T14:30:37.627Z,44.62
2024-05-09T14:33:07.131Z,45.39
2024-05-09T14:35:35.038Z,45.46
2024-05-09T14:38:02.484Z,45.59
2024-05-09T14:40:39.378Z,46.27
2024-05-09T14:43:14.728Z,45.93
2024-05-09T14:45:43.495Z,45.86
2024-05-09T14:48:11.962Z,46.30
2024-05-09T14:50:40.602Z,45.82
2024-05-09T14:53:09.223Z,46.19
2024-05-09T14:55:37.685Z,45.21
2024-05-09T14:58:08.901Z,45.48
2024-05-09T15:00:44.749Z,45.81
2024-05-09T15:03:15.557Z,45.71
2024-05-09T15:05:42.770Z,45.78
2024-05-09T15:08:09.755Z,45.73
2024-05-09T15:10:38.811Z,45.14
2024-05-09T15:13:08.055Z,45.06
2024-05-09T15:15:37.148Z,45.06
2024-05-09T15:18:05.533Z,45.26
2024-05-09T15:20:36.116Z,45.09
2024-05-09T15:23:06.071Z,44.45
2024-05-09T15:25:34.026Z,43.54
2024-05-09T15:28:01.302Z,43.75
2024-05-09T15:30:31.741Z,44.11
2024-05-09T15:33:01.440Z,44.56
2024-05-09T15:35:28.642Z,45.02
2024-05-09T15:37:55.852Z,44.77
2024-05-09T15:40:31.758Z,44.97
2024-05-09T15:43:06.508Z,45.06
2024-05-09T15:45:34.680Z,45.39
2024-05-09T15:48:03.256Z,45.36
2024-05-09T15:50:37.494Z,44.70
2024-05-09T15:53:09.126Z,45.13
2024-05-09T15:55:37.344Z,45.29
2024-05-09T15:58:05.723Z,45.38
2024-05-09T16:00:38.531Z,45.35
2024-05-09T16:03:13.575Z,45.53
2024-05-09T16:05:43.437Z,45.26
2024-05-09T16:08:12.340Z,45.29
2024-05-09T16:10:44.206Z,45.69
2024-05-09T16:13:12.658Z,45.85
2024-05-09T16:15:39.858Z,45.50
2024-05-09T16:18:07.529Z,45.45
2024-05-09T16:20:39.824Z,44.67
2024-05-09T16:23:09.467Z,45.00
2024-05-09T16:25:37.127Z,43.75
2024-05-09T16:28:08.752Z,44.16
2024-05-09T16:30:39.273Z,44.64
2024-05-09T16:33:06.727Z,44.42
2024-05-09T16:35:34.962Z,44.13
2024-05-09T16:38:03.330Z,44.54
2024-05-09T16:40:37.643Z,44.83
2024-05-09T16:43:10.971Z,44.58
2024-05-09T16:45:40.197Z,44.67
2024-05-09T16:48:08.434Z,44.58
2024-05-09T16:50:36.496Z,44.23
2024-05-09T16:53:05.019Z,44.00
2024-05-09T16:55:32.857Z,44.18
2024-05-09T16:58:00.201Z,42.12
2024-05-09T17:00:38.121Z,43.26
2024-05-09T17:03:10.923Z,43.65
2024-05-09T17:05:39.022Z,43.65
2024-05-09T17:08:06.893Z,43.74
2024-05-09T17:10:35.375Z,43.96
2024-05-09T17:13:04.406Z,44.25
2024-05-09T17:15:32.880Z,44.40
2024-05-09T17:18:00.764Z,44.51
2024-05-09T17:20:33.179Z,44.71
2024-05-09T17:23:03.769Z,45.14
2024-05-09T17:25:30.826Z,45.16
2024-05-09T17:28:05.239Z,44.99
2024-05-09T17:30:36.584Z,45.42
2024-05-09T17:33:06.496Z,45.57
2024-05-09T17:35:33.761Z,45.52
2024-05-09T17:38:01.853Z,45.54
2024-05-09T17:40:33.715Z,45.36
2024-05-09T17:43:04.623Z,45.09
2024-05-09T17:45:32.431Z,45.08
2024-05-09T17:48:00.009Z,45.10
2024-05-09T17:50:34.962Z,44.97
2024-05-09T17:53:04.418Z,44.12
2024-05-09T17:55:31.791Z,44.74
2024-05-09T17:57:58.829Z,44.77
2024-05-09T18:00:36.445Z,44.90
2024-05-09T18:03:07.393Z,45.18
2024-05-09T18:05:38.090Z,45.26
2024-05-09T18:08:06.662Z,45.50
2024-05-09T18:10:37.784Z,45.34
2024-05-09T18:13:08.238Z,45.72
2024-05-09T18:15:35.659Z,45.60
2024-05-09T18:18:03.579Z,45.69
2024-05-09T18:20:39.892Z,45.86
2024-05-09T18:23:11.544Z,46.08
2024-05-09T18:25:38.597Z,45.88
2024-05-09T18:28:06.500Z,46.08
2024-05-09T18:30:36.211Z,46.04
2024-05-09T18:33:06.540Z,46.74
2024-05-09T18:35:34.928Z,47.42
2024-05-09T18:38:01.833Z,48.42
2024-05-09T18:40:34.251Z,47.92
2024-05-09T18:43:07.017Z,47.38
2024-05-09T18:45:35.998Z,47.52
2024-05-09T18:48:05.602Z,47.04
2024-05-09T18:50:37.313Z,47.00
2024-05-09T18:53:07.042Z,47.03
2024-05-09T18:55:33.954Z,47.56
2024-05-09T18:58:01.322Z,47.26
2024-05-09T19:00:34.683Z,47.67
2024-05-09T19:03:09.595Z,47.53
2024-05-09T19:05:39.666Z,47.95
2024-05-09T19:08:07.816Z,47.49
2024-05-09T19:10:36.111Z,47.32
2024-05-09T19:13:09.325Z,47.48
2024-05-09T19:15:40.174Z,47.81
2024-05-09T19:18:07.884Z,48.04
2024-05-09T19:20:36.565Z,47.75
2024-05-09T19:23:06.011Z,48.01
2024-05-09T19:25:33.464Z,48.69
2024-05-09T19:28:01.232Z,47.99
2024-05-09T19:30:37.238Z,48.28
2024-05-09T19:33:08.570Z,48.54
2024-05-09T19:35:35.911Z,48.60
2024-05-09T19:38:02.970Z,48.56
2024-05-09T19:40:32.456Z,48.45
2024-05-09T19:43:02.697Z,48.47
2024-05-09T19:45:30.312Z,48.55
2024-05-09T19:47:57.593Z,49.05
2024-05-09T19:50:32.529Z,49.02
2024-05-09T19:53:07.768Z,48.81
2024-05-09T19:55:34.988Z,48.31
2024-05-09T19:58:05.140Z,48.48
2024-05-09T20:00:39.554Z,48.53
2024-05-09T20:03:09.234Z,49.03
2024-05-09T20:05:37.168Z,48.88
2024-05-09T20:08:05.329Z,49.16
2024-05-09T20:10:34.617Z,49.41
2024-05-09T20:13:04.990Z,49.31
2024-05-09T20:15:35.121Z,49.52
2024-05-09T20:18:02.710Z,49.30
2024-05-09T20:20:37.309Z,49.71
2024-05-09T20:23:08.440Z,49.65
2024-05-09T20:25:35.381Z,49.64
2024-05-09T20:28:02.679Z,49.71
2024-05-09T20:30:32.854Z,49.49
2024-05-09T20:33:07.077Z,49.69
2024-05-09T20:35:35.467Z,49.62
2024-05-09T20:38:03.324Z,49.91
2024-05-09T20:40:35.172Z,49.91
2024-05-09T20:43:06.255Z,49.91
2024-05-09T20:45:33.969Z,49.80
2024-05-09T20:48:01.815Z,49.89
2024-05-09T20:50:36.980Z,49.60
2024-05-09T20:53:16.335Z,50.07
2024-05-09T20:55:44.639Z,49.72
2024-05-09T20:58:12.350Z,50.17
2024-05-09T21:00:42.929Z,49.75
2024-05-09T21:03:13.456Z,49.89
2024-05-09T21:05:41.653Z,49.65
2024-05-09T21:08:08.876Z,49.94
2024-05-09T21:10:36.866Z,50.24
2024-05-09T21:13:07.476Z,50.32
2024-05-09T21:15:35.138Z,50.25
2024-05-09T21:18:02.560Z,50.49
2024-05-09T21:20:32.768Z,49.97
2024-05-09T21:23:01.449Z,50.31
2024-05-09T21:25:28.969Z,50.14
2024-05-09T21:27:55.992Z,49.72
2024-05-09T21:30:32.593Z,49.60
2024-05-09T21:33:13.161Z,50.17
2024-05-09T21:35:42.227Z,50.38
2024-05-09T21:38:09.240Z,50.38
2024-05-09T21:40:37.949Z,50.59
2024-05-09T21:43:07.214Z,50.78
2024-05-09T21:45:35.202Z,50.90
2024-05-09T21:48:06.314Z,50.81
2024-05-09T21:50:39.787Z,50.49
2024-05-09T21:53:12.751Z,50.98
2024-05-09T21:55:40.153Z,50.57
2024-05-09T21:58:07.221Z,50.29
2024-05-09T22:00:38.186Z,50.93
2024-05-09T22:03:07.970Z,50.41
2024-05-09T22:05:36.082Z,51.19
2024-05-09T22:08:03.844Z,50.92
2024-05-09T22:10:34.797Z,50.93
2024-05-09T22:13:04.138Z,50.71
2024-05-09T22:15:36.446Z,50.73
2024-05-09T22:18:04.744Z,51.19
2024-05-09T22:20:37.250Z,50.68
2024-05-09T22:23:06.407Z,50.83
2024-05-09T22:25:33.724Z,50.50
2024-05-09T22:28:02.285Z,50.16
2024-05-09T22:32:59.938Z,50.58
2024-05-09T22:35:26.863Z,50.43
2024-05-09T22:37:53.608Z,50.63
2024-05-09T22:40:29.153Z,50.39
2024-05-09T22:43:06.360Z,50.52
2024-05-09T22:45:33.714Z,50.58
2024-05-09T22:48:00.923Z,51.03
2024-05-09T22:50:32.887Z,51.26
2024-05-09T22:53:00.382Z,51.59
2024-05-09T22:55:27.550Z,51.33
2024-05-09T22:57:54.555Z,51.48
2024-05-09T23:00:29.381Z,51.38
2024-05-09T23:03:02.113Z,51.12
2024-05-09T23:05:29.960Z,50.84
2024-05-09T23:07:56.982Z,50.87
2024-05-09T23:10:31.758Z,51.16
2024-05-09T23:13:03.249Z,51.45
2024-05-09T23:15:30.673Z,51.43
2024-05-09T23:17:58.225Z,51.25
2024-05-09T23:20:35.873Z,51.68
2024-05-09T23:23:10.065Z,51.58
2024-05-09T23:25:38.280Z,51.53
2024-05-09T23:28:05.605Z,51.82
2024-05-09T23:30:37.848Z,52.12
2024-05-09T23:33:08.238Z,51.67
2024-05-09T23:35:35.425Z,51.78
2024-05-09T23:38:02.299Z,51.66
2024-05-09T23:40:37.897Z,51.56
2024-05-09T23:43:11.877Z,51.34
2024-05-09T23:45:39.720Z,51.35
2024-05-09T23:48:07.329Z,51.21
2024-05-09T23:50:37.693Z,51.48
2024-05-09T23:53:08.050Z,51.52
2024-05-09T23:55:36.190Z,51.48
2024-05-09T23:58:03.351Z,51.75
